Terminal Aerodrome Forecast
Issued by NWS

Home | Current Version | Previous Version | Text Only | Print | Product List | Glossary On
Versions: 1 2 3 4 5 6 7 8 9 10 11 12 13 14 15 16 17 18 19 20 21
700
FTUS41 KCLE 200927 AAA
TAFFDY
TAF AMD
KFDY 200927Z 2009/2106 09008KT 3SM -RA BR OVC025
      TEMPO 2009/2012 2SM RA BR OVC015
     FM201200 11008KT 4SM -RA BR OVC005
     FM201600 22008KT P6SM OVC007
     FM202200 20006KT P6SM OVC015=

USA.gov is the U.S. government's official web portal to all federal, state and local government web resources and services.